Time;durP1;ratioP1;P1;durP2;ratioP2;P2;SDS_P1;SDS_P2;PMS_P1;PMS_P2;Temp;Humidity;BMP_temperature;BMP_pressure;BME280_temperature;BME280_humidity;BME280_pressure;Samples;Min_cycle;Max_cycle;Signal;HPM_P1;HPM_P2
2024/02/23 00:01:13;;;;;;;31.50;29.70;;;;;;;2.78;100.00;100835.00;5097473;28;20492;-71
2024/02/23 00:03:40;;;;;;;26.52;24.83;;;;;;;3.20;100.00;100845.63;5090059;28;20048;-71
2024/02/23 00:06:08;;;;;;;27.48;25.77;;;;;;;3.41;100.00;100844.44;5099136;28;20051;-72
2024/02/23 00:08:37;;;;;;;27.73;26.02;;;;;;;3.54;100.00;100833.50;5091243;28;20495;-71
2024/02/23 00:11:05;;;;;;;31.25;29.45;;;;;;;3.44;100.00;100833.63;5090387;28;20059;-71
2024/02/23 00:13:32;;;;;;;32.85;31.05;;;;;;;3.43;100.00;100835.44;5100575;28;20396;-71
2024/02/23 00:16:01;;;;;;;31.30;29.40;;;;;;;3.39;100.00;100826.22;5090550;28;20055;-71
2024/02/23 00:18:28;;;;;;;30.85;28.85;;;;;;;3.53;100.00;100823.97;5086716;28;20058;-72
2024/02/23 00:20:56;;;;;;;31.17;29.08;;;;;;;3.62;100.00;100813.34;5107036;28;20131;-72
2024/02/23 00:23:23;;;;;;;33.40;31.40;;;;;;;3.68;100.00;100822.41;5099314;28;20044;-71
2024/02/23 00:25:51;;;;;;;30.30;28.48;;;;;;;3.68;100.00;100822.41;5101545;28;20058;-72
2024/02/23 00:28:19;;;;;;;30.17;28.27;;;;;;;3.83;100.00;100822.63;5089662;28;20044;-71
2024/02/23 00:30:46;;;;;;;31.42;29.52;;;;;;;3.82;100.00;100829.69;5092558;28;20044;-71
2024/02/23 00:33:13;;;;;;;31.13;29.00;;;;;;;3.76;100.00;100825.06;5096431;28;20135;-71
2024/02/23 00:35:40;;;;;;;29.45;27.65;;;;;;;3.77;100.00;100820.63;5102098;28;20130;-71
2024/02/23 00:38:07;;;;;;;30.10;28.17;;;;;;;3.62;100.00;100815.97;5091972;28;20063;-71
2024/02/23 00:40:34;;;;;;;34.08;32.00;;;;;;;3.61;100.00;100816.16;5100546;28;20073;-71
2024/02/23 00:43:03;;;;;;;30.83;28.83;;;;;;;3.72;100.00;100815.84;5100979;28;20048;-71
2024/02/23 00:45:29;;;;;;;30.48;28.58;;;;;;;3.67;100.00;100810.25;5088245;28;20079;-71
2024/02/23 00:47:56;;;;;;;31.63;29.73;;;;;;;3.63;100.00;100812.38;5101371;28;20432;-71
2024/02/23 00:50:26;;;;;;;32.55;30.65;;;;;;;3.56;100.00;100802.66;5102155;28;20044;-71
2024/02/23 00:52:53;;;;;;;28.02;26.33;;;;;;;3.44;100.00;100804.75;5090483;28;20251;-71
2024/02/23 00:55:20;;;;;;;27.80;26.08;;;;;;;3.18;100.00;100802.16;5098099;28;20133;-71
2024/02/23 00:57:47;;;;;;;30.58;28.77;;;;;;;3.08;100.00;100801.44;5098386;28;20066;-71
2024/02/23 01:00:16;;;;;;;29.85;28.15;;;;;;;3.28;100.00;100805.47;5104137;28;20145;-71
2024/02/23 01:02:43;;;;;;;32.30;30.30;;;;;;;3.31;100.00;100791.22;5099970;28;20048;-72
2024/02/23 01:05:10;;;;;;;31.23;29.33;;;;;;;3.54;100.00;100799.34;5101233;28;20052;-71
2024/02/23 01:07:37;;;;;;;27.45;25.75;;;;;;;3.34;100.00;100796.16;5098643;27;20446;-71
2024/02/23 01:10:05;;;;;;;28.10;26.40;;;;;;;3.50;100.00;100798.03;5105760;28;20054;-71
2024/02/23 01:12:31;;;;;;;27.60;25.90;;;;;;;3.41;100.00;100784.88;5093749;28;20634;-72
2024/02/23 01:14:58;;;;;;;29.80;27.90;;;;;;;3.55;100.00;100788.72;5098497;28;20503;-71
2024/02/23 01:17:27;;;;;;;29.83;27.92;;;;;;;3.71;100.00;100797.63;5101811;28;20056;-71
2024/02/23 01:19:53;;;;;;;30.95;28.98;;;;;;;3.73;100.00;100793.03;5099551;28;20048;-72
2024/02/23 01:22:20;;;;;;;32.33;30.13;;;;;;;3.89;100.00;100788.66;5098870;28;20047;-74
2024/02/23 01:24:47;;;;;;;30.90;29.00;;;;;;;3.89;100.00;100788.66;5088353;28;20052;-74
2024/02/23 01:27:14;;;;;;;31.33;29.33;;;;;;;3.93;100.00;100793.56;5098443;28;20060;-74
2024/02/23 01:29:41;;;;;;;32.00;30.10;;;;;;;3.79;100.00;100785.34;5102147;28;20142;-74
2024/02/23 01:32:08;;;;;;;30.08;28.17;;;;;;;3.69;100.00;100779.38;5100156;28;20093;-74
2024/02/23 01:34:36;;;;;;;31.30;29.30;;;;;;;3.38;100.00;100777.31;5088882;28;20050;-71
2024/02/23 01:37:04;;;;;;;30.52;28.63;;;;;;;3.59;100.00;100782.16;5107029;28;20052;-74
2024/02/23 01:39:30;;;;;;;30.05;28.25;;;;;;;3.63;100.00;100782.66;5106986;28;20560;-71
2024/02/23 01:41:58;;;;;;;27.92;26.23;;;;;;;3.28;100.00;100779.22;5101573;28;20052;-73
2024/02/23 01:44:25;;;;;;;28.73;27.02;;;;;;;3.32;100.00;100779.75;5100332;28;20051;-71
2024/02/23 01:46:52;;;;;;;32.75;30.75;;;;;;;3.03;100.00;100769.59;5097558;28;20089;-72
2024/02/23 01:49:19;;;;;;;31.90;30.00;;;;;;;3.00;100.00;100762.84;5100473;28;20062;-71
2024/02/23 01:51:51;;;;;;;30.20;28.30;;;;;;;3.51;100.00;100766.38;5100636;28;20051;-71
2024/02/23 01:54:18;;;;;;;32.95;30.95;;;;;;;3.81;100.00;100757.13;5088183;28;20131;-71
2024/02/23 01:56:45;;;;;;;37.60;35.40;;;;;;;3.65;100.00;100760.50;5104884;28;20048;-73
2024/02/23 01:59:13;;;;;;;31.90;30.00;;;;;;;4.07;100.00;100758.78;5105637;28;20495;-72
2024/02/23 02:01:40;;;;;;;30.13;28.33;;;;;;;4.10;100.00;100769.78;5101910;28;20047;-71
2024/02/23 02:04:07;;;;;;;30.38;28.58;;;;;;;3.99;100.00;100762.22;5097361;28;20177;-71
2024/02/23 02:06:34;;;;;;;29.52;27.73;;;;;;;4.21;100.00;100765.22;5090859;28;20052;-74
2024/02/23 02:09:03;;;;;;;32.33;30.35;;;;;;;4.47;100.00;100754.53;5104362;28;20423;-74
2024/02/23 02:11:30;;;;;;;36.95;34.47;;;;;;;4.39;100.00;100758.00;5095117;28;20040;-72
2024/02/23 02:13:57;;;;;;;32.75;30.70;;;;;;;4.27;100.00;100756.69;5093939;28;20553;-72
2024/02/23 02:16:23;;;;;;;31.05;29.10;;;;;;;3.97;100.00;100763.38;5102088;28;20094;-71
2024/02/23 02:18:51;;;;;;;32.38;30.33;;;;;;;3.96;100.00;100762.53;5098003;28;20044;-71
2024/02/23 02:21:18;;;;;;;35.22;33.22;;;;;;;4.20;100.00;100759.13;5092812;28;20074;-72
2024/02/23 02:23:45;;;;;;;31.67;29.88;;;;;;;4.17;100.00;100767.34;5095249;28;20577;-71
2024/02/23 02:26:14;;;;;;;31.60;29.70;;;;;;;4.02;100.00;100766.34;5107633;28;20412;-71
2024/02/23 02:28:40;;;;;;;36.00;33.80;;;;;;;3.51;100.00;100765.53;5100683;28;20051;-71
2024/02/23 02:31:08;;;;;;;35.65;33.65;;;;;;;4.26;100.00;100771.63;5088949;28;20495;-72
2024/02/23 02:33:35;;;;;;;30.02;28.30;;;;;;;4.16;100.00;100768.34;5090323;28;20858;-71
2024/02/23 02:36:05;;;;;;;27.88;26.27;;;;;;;3.90;100.00;100771.91;5102373;28;20521;-71
2024/02/23 02:38:33;;;;;;;31.52;29.73;;;;;;;4.06;100.00;100779.00;5100724;28;20051;-71
2024/02/23 02:41:00;;;;;;;36.15;34.17;;;;;;;4.25;100.00;100771.78;5077951;28;20052;-71
2024/02/23 02:43:29;;;;;;;29.58;27.88;;;;;;;4.51;100.00;100761.13;5086134;28;20047;-71
2024/02/23 02:45:56;;;;;;;28.92;27.30;;;;;;;3.94;100.00;100768.97;5087759;28;20510;-71
2024/02/23 02:48:23;;;;;;;32.38;30.52;;;;;;;4.24;100.00;100778.06;5103354;28;20060;-71
2024/02/23 02:50:51;;;;;;;32.22;30.42;;;;;;;4.51;100.00;100772.47;5104273;28;20044;-72
2024/02/23 02:53:17;;;;;;;30.58;28.83;;;;;;;4.51;100.00;100776.91;5094020;28;20138;-71
2024/02/23 02:55:45;;;;;;;27.77;26.17;;;;;;;4.62;100.00;100768.66;5094196;28;20048;-71
2024/02/23 02:58:12;;;;;;;31.25;29.45;;;;;;;4.42;100.00;100772.59;5091238;28;20047;-71
2024/02/23 03:00:41;;;;;;;29.05;27.35;;;;;;;4.61;100.00;100768.84;5096426;28;20627;-71
2024/02/23 03:03:08;;;;;;;31.30;29.50;;;;;;;4.68;100.00;100772.44;5101494;28;20058;-71
2024/02/23 03:05:35;;;;;;;32.33;30.63;;;;;;;4.84;100.00;100775.03;5094447;28;20474;-71
2024/02/23 03:08:02;;;;;;;28.83;27.33;;;;;;;4.94;100.00;100769.63;5091976;28;20057;-72
2024/02/23 03:10:28;;;;;;;31.70;30.00;;;;;;;4.98;100.00;100776.19;5101401;28;20054;-71
2024/02/23 03:12:55;;;;;;;31.38;29.67;;;;;;;5.04;100.00;100772.88;5089530;28;20056;-74
2024/02/23 03:15:22;;;;;;;29.60;27.85;;;;;;;5.11;100.00;100776.47;5096166;28;20062;-74
2024/02/23 03:17:50;;;;;;;30.20;28.60;;;;;;;4.61;100.00;100772.28;5074818;28;20044;-74
2024/02/23 03:20:17;;;;;;;36.30;34.40;;;;;;;4.64;100.00;100771.97;5087112;28;20051;-74
2024/02/23 03:22:44;;;;;;;34.63;32.83;;;;;;;4.75;100.00;100773.41;5090432;28;20105;-74
2024/02/23 03:25:11;;;;;;;32.60;30.90;;;;;;;4.87;100.00;100769.47;5089470;28;20051;-74
2024/02/23 03:27:43;;;;;;;30.55;29.00;;;;;;;4.92;100.00;100772.41;5089701;28;20051;-74
2024/02/23 03:30:11;;;;;;;35.88;34.05;;;;;;;4.81;100.00;100770.97;5098501;28;20055;-74
2024/02/23 03:32:38;;;;;;;31.27;29.67;;;;;;;4.64;100.00;100773.78;5101059;28;20052;-74
2024/02/23 03:35:08;;;;;;;34.03;32.22;;;;;;;4.56;100.00;100764.06;5105411;28;20044;-74
2024/02/23 03:37:35;;;;;;;32.88;31.08;;;;;;;4.54;100.00;100766.88;5105373;28;20055;-72
2024/02/23 03:40:04;;;;;;;31.42;29.52;;;;;;;4.52;100.00;100774.09;5092419;28;20062;-72
2024/02/23 03:42:31;;;;;;;30.00;28.38;;;;;;;4.41;100.00;100777.06;5100499;28;20058;-71
2024/02/23 03:44:58;;;;;;;30.25;28.55;;;;;;;5.00;100.00;100775.03;5108811;28;20059;-72
2024/02/23 03:47:25;;;;;;;33.60;31.60;;;;;;;5.04;100.00;100775.50;5101342;28;20059;-71
2024/02/23 03:49:52;;;;;;;31.48;29.58;;;;;;;5.18;100.00;100768.75;5091557;28;20070;-71
2024/02/23 03:52:20;;;;;;;31.15;29.35;;;;;;;4.95;100.00;100774.72;5103884;28;20048;-74
2024/02/23 03:54:47;;;;;;;31.33;29.42;;;;;;;4.67;100.00;100763.75;5080346;28;20056;-74
2024/02/23 03:57:15;;;;;;;32.85;30.95;;;;;;;5.11;100.00;100773.03;5099886;28;20059;-74
2024/02/23 03:59:52;;;;;;;31.98;30.08;;;;;;;4.99;100.00;100765.50;5104867;28;20058;-74
2024/02/23 04:02:19;;;;;;;32.10;29.88;;;;;;;5.14;100.00;100777.94;5104984;28;20117;-74
2024/02/23 04:04:47;;;;;;;28.98;27.38;;;;;;;5.18;100.00;100788.00;5090548;28;20439;-74
2024/02/23 04:07:14;;;;;;;31.65;29.95;;;;;;;5.26;100.00;100779.22;5094900;28;20081;-71
2024/02/23 04:09:42;;;;;;;30.13;28.30;;;;;;;5.25;100.00;100775.78;5103612;28;20138;-71
2024/02/23 04:12:09;;;;;;;31.92;30.02;;;;;;;5.31;100.00;100776.09;5108196;28;20048;-74
2024/02/23 04:14:40;;;;;;;27.73;25.98;;;;;;;4.80;100.00;100779.81;5090840;28;20048;-71
2024/02/23 04:17:11;;;;;;;30.10;28.33;;;;;;;4.69;100.00;100774.94;5097861;28;20431;-71
2024/02/23 04:19:38;;;;;;;30.13;28.33;;;;;;;4.74;100.00;100771.78;5092319;28;20060;-74
2024/02/23 04:22:09;;;;;;;29.08;27.08;;;;;;;4.79;100.00;100772.13;5103186;28;20071;-74
2024/02/23 04:24:40;;;;;;;28.85;26.90;;;;;;;4.55;100.00;100771.13;5096680;28;20451;-74
2024/02/23 04:27:09;;;;;;;29.42;27.63;;;;;;;4.30;100.00;100767.69;5098708;28;20062;-74
2024/02/23 04:29:36;;;;;;;29.70;27.67;;;;;;;4.17;100.00;100767.34;5094917;28;20059;-74
2024/02/23 04:32:04;;;;;;;29.00;27.20;;;;;;;4.13;100.00;100766.84;5090192;28;20551;-74
2024/02/23 04:34:31;;;;;;;32.38;29.67;;;;;;;3.88;100.00;100768.63;5102578;28;20047;-74
2024/02/23 04:36:58;;;;;;;29.92;28.02;;;;;;;3.67;100.00;100776.13;5091876;28;20056;-74
2024/02/23 04:39:24;;;;;;;29.35;27.45;;;;;;;3.68;100.00;100773.31;5099957;28;20058;-74
2024/02/23 04:41:54;;;;;;;29.30;27.60;;;;;;;3.65;100.00;100786.75;5090425;28;20447;-74
2024/02/23 04:44:22;;;;;;;29.77;27.88;;;;;;;3.63;100.00;100785.28;5097460;28;20097;-71
2024/02/23 04:46:49;;;;;;;31.75;29.20;;;;;;;3.63;100.00;100786.13;5094466;28;20102;-72
2024/02/23 04:49:16;;;;;;;36.22;33.53;;;;;;;3.40;100.00;100783.22;5105283;28;20062;-71
2024/02/23 04:51:43;;;;;;;36.83;34.53;;;;;;;3.41;100.00;100782.22;5104659;28;20070;-71
2024/02/23 04:54:10;;;;;;;34.97;32.67;;;;;;;3.50;100.00;100782.28;5092884;28;20715;-71
2024/02/23 04:56:37;;;;;;;35.63;33.40;;;;;;;3.79;100.00;100789.78;5107915;28;20541;-72
2024/02/23 04:59:04;;;;;;;42.13;37.92;;;;;;;4.07;100.00;100783.25;5095085;28;20058;-72
2024/02/23 05:01:39;;;;;;;35.50;32.00;;;;;;;4.17;100.00;100787.56;5090466;28;20048;-71
2024/02/23 05:04:06;;;;;;;29.50;26.77;;;;;;;3.66;100.00;100793.69;5095750;28;20058;-72
2024/02/23 05:06:33;;;;;;;34.55;31.80;;;;;;;3.94;100.00;100796.06;5101437;28;20047;-71
2024/02/23 05:09:00;;;;;;;61.10;55.90;;;;;;;3.98;100.00;100796.56;5088732;28;20048;-71
2024/02/23 05:11:26;;;;;;;37.50;34.50;;;;;;;3.99;100.00;100787.69;5089181;28;20050;-74
2024/02/23 05:13:53;;;;;;;35.85;33.45;;;;;;;3.96;100.00;100801.16;5088538;28;20044;-74
2024/02/23 05:16:20;;;;;;;37.53;35.20;;;;;;;4.08;100.00;100800.66;5091536;28;20052;-75
2024/02/23 05:18:50;;;;;;;27.90;26.20;;;;;;;4.19;100.00;100804.00;5090447;28;20056;-71
2024/02/23 05:21:17;;;;;;;24.23;22.73;;;;;;;4.31;100.00;100808.78;5091042;28;20080;-72
2024/02/23 05:23:46;;;;;;;25.60;24.00;;;;;;;4.46;100.00;100801.06;5094364;28;20050;-72
2024/02/23 05:26:13;;;;;;;25.38;23.77;;;;;;;4.48;100.00;100806.16;5092265;28;20054;-72
2024/02/23 05:28:40;;;;;;;26.58;24.88;;;;;;;6.85;100.00;100816.53;5082889;28;20052;-69
2024/02/23 05:31:07;;;;;;;24.58;23.08;;;;;;;5.24;100.00;100815.47;5098274;28;20146;-72
2024/02/23 05:33:38;;;;;;;25.48;23.95;;;;;;;4.80;100.00;100829.00;5084874;28;20058;-71
2024/02/23 05:36:07;;;;;;;25.65;24.10;;;;;;;4.55;100.00;100823.75;5083644;28;20070;-69
2024/02/23 05:38:34;;;;;;;28.65;26.95;;;;;;;4.60;100.00;100825.91;5102104;28;20059;-71
2024/02/23 05:41:01;;;;;;;27.02;25.38;;;;;;;4.55;100.00;100825.56;5093136;28;20433;-72
2024/02/23 05:43:28;;;;;;;28.23;26.33;;;;;;;4.71;100.00;100833.44;5099705;28;20479;-69
2024/02/23 05:45:57;;;;;;;28.33;26.55;;;;;;;4.87;100.00;100826.53;5089137;28;20040;-69
2024/02/23 05:48:24;;;;;;;27.55;25.75;;;;;;;5.08;100.00;100837.38;5086678;28;20055;-69
2024/02/23 05:50:50;;;;;;;28.02;26.33;;;;;;;5.21;100.00;100837.69;5095121;28;20058;-70
2024/02/23 05:53:19;;;;;;;27.73;26.02;;;;;;;5.36;100.00;100829.09;5099311;28;20044;-71
2024/02/23 05:55:46;;;;;;;27.25;25.55;;;;;;;5.48;100.00;100836.47;5093086;28;20530;-69
2024/02/23 05:58:16;;;;;;;26.80;25.15;;;;;;;5.64;100.00;100840.84;5093496;28;20065;-69
2024/02/23 06:00:43;;;;;;;26.70;25.10;;;;;;;5.73;100.00;100837.19;5093894;28;20503;-69
2024/02/23 06:03:10;;;;;;;26.73;24.98;;;;;;;5.87;100.00;100837.47;5093697;28;20036;-70
2024/02/23 06:05:37;;;;;;;27.00;25.25;;;;;;;5.99;100.00;100835.28;5091714;28;20442;-70
2024/02/23 06:08:04;;;;;;;28.23;26.60;;;;;;;6.16;100.00;100845.56;5092123;28;20400;-70
2024/02/23 06:10:33;;;;;;;28.20;26.60;;;;;;;6.50;100.00;100846.19;5098318;28;20054;-72
2024/02/23 06:13:00;;;;;;;30.55;28.67;;;;;;;6.70;100.00;100846.56;5091584;28;20430;-72
2024/02/23 06:15:26;;;;;;;28.75;27.15;;;;;;;6.87;100.00;100843.59;5085954;28;20059;-72
2024/02/23 06:17:53;;;;;;;28.30;26.35;;;;;;;7.20;100.00;100842.44;5097380;28;20055;-71
2024/02/23 06:20:20;;;;;;;28.88;27.17;;;;;;;7.32;100.00;100843.66;5096135;28;20048;-73
2024/02/23 06:22:47;;;;;;;31.17;29.00;;;;;;;7.57;100.00;100847.69;5090755;28;20056;-72
2024/02/23 06:25:15;;;;;;;30.52;27.77;;;;;;;7.79;100.00;100856.50;5094142;28;20746;-72
2024/02/23 06:27:43;;;;;;;29.45;27.75;;;;;;;8.07;100.00;100858.47;5095903;28;20051;-72
2024/02/23 06:30:11;;;;;;;29.35;27.65;;;;;;;8.21;100.00;100854.16;5091989;28;20067;-72
2024/02/23 06:32:38;;;;;;;32.67;30.77;;;;;;;8.42;100.00;100848.09;5089831;28;20056;-72
2024/02/23 06:35:06;;;;;;;30.60;28.90;;;;;;;8.56;100.00;100857.78;5091433;28;20533;-72
2024/02/23 06:37:34;;;;;;;30.92;29.13;;;;;;;8.78;100.00;100849.84;5090298;28;20075;-71
2024/02/23 06:40:00;;;;;;;32.42;30.52;;;;;;;8.98;100.00;100847.34;5089430;28;20527;-72
2024/02/23 06:42:27;;;;;;;32.85;31.02;;;;;;;9.01;100.00;100849.63;5085803;28;20062;-72
2024/02/23 06:44:56;;;;;;;40.25;35.90;;;;;;;9.05;100.00;100846.41;5101177;28;20051;-72
2024/02/23 06:47:23;;;;;;;34.67;32.13;;;;;;;9.14;100.00;100849.75;5094170;28;20059;-72
2024/02/23 06:49:50;;;;;;;30.25;28.45;;;;;;;9.12;100.00;100849.09;5085669;28;20039;-71
2024/02/23 06:52:18;;;;;;;33.10;31.13;;;;;;;9.20;100.00;100846.31;5087459;28;20053;-71
2024/02/23 06:54:45;;;;;;;32.85;30.95;;;;;;;9.50;100.00;100857.50;5089163;28;20051;-72
2024/02/23 06:57:12;;;;;;;32.70;30.88;;;;;;;9.72;100.00;100844.16;5086126;28;20134;-72
2024/02/23 06:59:38;;;;;;;33.30;31.50;;;;;;;9.75;100.00;100855.19;5086146;28;20052;-72
2024/02/23 07:02:07;;;;;;;32.70;30.77;;;;;;;10.11;100.00;100848.81;5083647;28;20621;-72
2024/02/23 07:04:34;;;;;;;33.50;31.70;;;;;;;9.93;100.00;100844.03;5092356;28;20058;-72
2024/02/23 07:07:06;;;;;;;45.33;42.63;;;;;;;10.15;100.00;100843.91;5097601;28;20051;-73
2024/02/23 07:09:33;;;;;;;35.25;33.15;;;;;;;10.65;100.00;100847.94;5096657;28;20074;-72
2024/02/23 07:12:00;;;;;;;36.65;33.38;;;;;;;10.75;100.00;100840.38;5084063;28;20504;-71
2024/02/23 07:14:27;;;;;;;34.42;32.42;;;;;;;11.09;100.00;100843.00;5084771;28;20048;-71
2024/02/23 07:16:54;;;;;;;33.13;31.13;;;;;;;11.23;100.00;100839.31;5094674;28;20059;-72
2024/02/23 07:19:25;;;;;;;34.72;32.83;;;;;;;11.82;100.00;100843.66;5096835;28;20052;-72
2024/02/23 07:21:52;;;;;;;31.75;29.95;;;;;;;11.89;100.00;100840.97;5093272;28;20074;-72
2024/02/23 07:24:19;;;;;;;34.95;32.85;;;;;;;12.17;100.00;100847.84;5097675;28;20598;-72
2024/02/23 07:26:45;;;;;;;45.30;42.92;;;;;;;12.10;100.00;100843.38;5103841;28;20067;-72
2024/02/23 07:29:12;;;;;;;43.47;40.95;;;;;;;12.30;100.00;100840.56;5071804;28;20056;-72
2024/02/23 07:31:39;;;;;;;38.67;36.38;;;;;;;12.42;100.00;100839.91;5103004;28;20780;-72
2024/02/23 07:34:06;;;;;;;35.10;32.80;;;;;;;12.71;100.00;100839.28;5083742;28;20163;-73
2024/02/23 07:36:34;;;;;;;33.55;31.55;;;;;;;12.89;100.00;100843.03;5092004;28;20048;-72
2024/02/23 07:39:02;;;;;;;32.60;30.60;;;;;;;13.07;100.00;100838.56;5090908;28;20056;-74
2024/02/23 07:41:29;;;;;;;33.00;31.00;;;;;;;12.71;100.00;100846.44;5095636;28;20113;-72
2024/02/23 07:43:56;;;;;;;37.38;35.13;;;;;;;13.44;100.00;100835.97;5100197;28;20052;-72
2024/02/23 07:46:23;;;;;;;49.88;47.08;;;;;;;13.87;100.00;100843.06;5093383;28;20051;-72
2024/02/23 07:48:50;;;;;;;51.58;48.75;;;;;;;13.95;100.00;100839.28;5090071;28;20785;-72
2024/02/23 07:51:17;;;;;;;53.40;50.40;;;;;;;14.11;100.00;100837.84;5098883;28;20134;-72
2024/02/23 07:53:45;;;;;;;38.38;35.92;;;;;;;13.86;100.00;100836.13;5105586;28;20048;-73
2024/02/23 07:56:12;;;;;;;37.88;35.50;;;;;;;13.98;100.00;100844.19;5101137;28;20163;-73
2024/02/23 07:58:41;;;;;;;46.92;43.92;;;;;;;14.66;100.00;100838.50;5096973;28;20058;-72
2024/02/23 08:01:08;;;;;;;58.28;55.08;;;;;;;14.75;100.00;100838.16;5095318;28;20052;-72
2024/02/23 08:03:35;;;;;;;59.08;55.78;;;;;;;13.22;100.00;100842.72;5099693;28;20048;-72
2024/02/23 08:06:01;;;;;;;68.90;65.20;;;;;;;15.04;100.00;100841.81;5095373;28;20058;-72
2024/02/23 08:08:28;;;;;;;85.88;81.30;;;;;;;15.18;100.00;100832.47;5098201;28;20048;-72
2024/02/23 08:10:57;;;;;;;78.75;74.55;;;;;;;15.44;100.00;100839.22;5083750;28;20139;-72
2024/02/23 08:13:24;;;;;;;47.83;44.67;;;;;;;15.36;100.00;100836.88;5089430;28;20080;-72
2024/02/23 08:15:50;;;;;;;39.15;36.75;;;;;;;15.53;100.00;100835.13;5084083;28;20078;-72
2024/02/23 08:18:17;;;;;;;77.07;72.90;;;;;;;16.44;100.00;100837.97;5089745;28;20052;-72
2024/02/23 08:20:45;;;;;;;75.93;71.65;;;;;;;16.43;100.00;100838.19;5096307;28;20043;-72
2024/02/23 08:23:12;;;;;;;67.45;63.40;;;;;;;16.29;100.00;100840.38;5095907;28;20882;-72
2024/02/23 08:25:41;;;;;;;68.45;64.55;;;;;;;16.06;100.00;100837.78;5096249;28;20043;-72
2024/02/23 08:28:10;;;;;;;65.35;61.53;;;;;;;16.79;81.08;100841.50;5096512;28;20095;-72
2024/02/23 08:30:37;;;;;;;57.78;54.58;;;;;;;12.70;100.00;100847.47;5086500;28;20056;-72
2024/02/23 08:33:04;;;;;;;72.40;68.40;;;;;;;12.00;100.00;100845.66;5096791;28;20430;-72
2024/02/23 08:35:32;;;;;;;76.05;71.95;;;;;;;12.23;100.00;100836.34;5098821;28;20139;-72
2024/02/23 08:37:59;;;;;;;40.85;38.25;;;;;;;14.73;100.00;100825.00;5099318;28;20059;-72
2024/02/23 08:40:26;;;;;;;70.38;66.38;;;;;;;14.68;100.00;100832.13;5094859;28;20220;-72
2024/02/23 08:42:53;;;;;;;43.55;40.65;;;;;;;13.71;100.00;100833.81;5096841;28;20198;-72
2024/02/23 08:45:22;;;;;;;57.17;53.85;;;;;;;14.87;100.00;100829.09;5098724;28;20051;-72
2024/02/23 08:47:48;;;;;;;43.45;40.75;;;;;;;12.25;100.00;100839.56;5102746;28;20048;-72
2024/02/23 08:50:16;;;;;;;82.82;78.43;;;;;;;13.82;100.00;100829.56;5097730;28;20062;-72
2024/02/23 08:52:42;;;;;;;90.63;85.93;;;;;;;13.83;100.00;100830.38;5088340;28;20044;-72
2024/02/23 08:55:11;;;;;;;73.88;69.88;;;;;;;13.94;100.00;100833.13;5090450;28;20043;-72
2024/02/23 08:57:38;;;;;;;75.22;70.63;;;;;;;15.63;100.00;100833.72;5091595;28;20052;-72
2024/02/23 09:00:07;;;;;;;72.68;68.78;;;;;;;14.63;100.00;100841.63;5088233;28;20048;-72
2024/02/23 09:02:37;;;;;;;46.03;43.13;;;;;;;13.90;100.00;100836.47;5093818;28;20539;-72
2024/02/23 09:05:05;;;;;;;71.22;67.22;;;;;;;12.87;100.00;100843.25;5096416;28;20048;-72
2024/02/23 09:07:32;;;;;;;41.58;38.70;;;;;;;12.48;100.00;100847.84;5091317;28;20044;-72
2024/02/23 09:09:59;;;;;;;64.25;60.45;;;;;;;13.55;100.00;100841.59;5088073;28;20084;-72
2024/02/23 09:12:26;;;;;;;58.33;54.83;;;;;;;15.32;100.00;100846.44;5102770;28;20056;-73
2024/02/23 09:14:53;;;;;;;57.97;54.67;;;;;;;14.33;100.00;100844.31;5089204;28;20868;-72
2024/02/23 09:17:20;;;;;;;39.35;36.95;;;;;;;12.75;100.00;100848.47;5102788;28;20070;-72
2024/02/23 09:19:48;;;;;;;40.47;37.88;;;;;;;12.58;100.00;100840.19;5088731;28;20066;-72
2024/02/23 09:22:16;;;;;;;39.88;37.38;;;;;;;11.52;100.00;100853.16;5086017;28;20048;-72
2024/02/23 09:24:43;;;;;;;37.72;35.35;;;;;;;15.69;100.00;100838.97;5093675;28;20112;-72
2024/02/23 09:27:14;;;;;;;36.58;34.17;;;;;;;14.76;100.00;100848.63;5092668;28;20125;-72
2024/02/23 09:29:42;;;;;;;40.83;38.22;;;;;;;18.86;72.85;100835.38;5100229;28;20055;-72
2024/02/23 09:32:08;;;;;;;57.65;54.35;;;;;;;16.47;78.19;100847.41;5099038;28;20058;-72
2024/02/23 09:34:35;;;;;;;59.85;56.40;;;;;;;15.14;99.41;100841.22;5087623;28;20127;-72
2024/02/23 09:37:04;;;;;;;62.80;59.38;;;;;;;15.15;100.00;100842.84;5098712;28;20052;-72
2024/02/23 09:39:31;;;;;;;59.72;56.13;;;;;;;16.26;81.98;100841.66;5089721;28;20278;-72
2024/02/23 09:41:58;;;;;;;63.90;60.10;;;;;;;15.06;100.00;100845.84;5096887;28;20052;-72
2024/02/23 09:44:27;;;;;;;61.75;58.35;;;;;;;13.44;100.00;100835.16;5100777;28;20174;-72
2024/02/23 09:46:55;;;;;;;62.15;58.70;;;;;;;14.52;100.00;100837.06;5101818;28;20048;-72
2024/02/23 09:49:22;;;;;;;62.28;58.88;;;;;;;17.55;79.28;100831.88;5088264;28;20185;-72
2024/02/23 09:51:49;;;;;;;61.90;58.50;;;;;;;14.08;100.00;100831.09;5086381;28;20051;-72
2024/02/23 09:54:18;;;;;;;64.45;60.90;;;;;;;15.17;100.00;100830.88;5092281;28;20927;-73
2024/02/23 09:56:45;;;;;;;61.65;58.25;;;;;;;14.73;100.00;100826.88;5093951;28;20698;-72
2024/02/23 09:59:13;;;;;;;60.67;57.28;;;;;;;15.61;100.00;100825.09;5096894;28;20054;-71
2024/02/23 10:01:41;;;;;;;59.35;55.95;;;;;;;17.44;75.62;100827.44;5091049;28;20052;-73
2024/02/23 10:04:08;;;;;;;61.97;58.47;;;;;;;17.21;75.58;100823.09;5095706;28;20078;-72
2024/02/23 10:06:35;;;;;;;61.63;58.13;;;;;;;17.62;67.58;100818.25;5090298;28;20098;-72
2024/02/23 10:09:04;;;;;;;62.03;58.53;;;;;;;15.42;100.00;100825.25;5092709;28;20052;-72
2024/02/23 10:11:32;;;;;;;63.95;60.35;;;;;;;13.77;100.00;100825.94;5097971;28;20055;-72
2024/02/23 10:13:59;;;;;;;61.63;58.03;;;;;;;15.42;100.00;100827.13;5092626;28;20082;-72
2024/02/23 10:16:25;;;;;;;62.83;59.33;;;;;;;16.79;78.63;100817.38;5087148;28;20692;-72
2024/02/23 10:18:52;;;;;;;71.63;67.82;;;;;;;17.55;83.90;100817.63;5087654;28;20461;-73
2024/02/23 10:21:19;;;;;;;69.95;65.95;;;;;;;15.94;99.34;100814.53;5090543;27;20122;-72
2024/02/23 10:23:46;;;;;;;62.38;58.88;;;;;;;16.83;85.25;100810.47;5091437;28;20807;-73
2024/02/23 10:26:18;;;;;;;59.63;56.13;;;;;;;17.37;77.57;100811.50;5099415;28;20230;-72
2024/02/23 10:28:47;;;;;;;64.00;60.20;;;;;;;19.82;56.92;100799.28;5094227;28;20134;-72
2024/02/23 10:31:14;;;;;;;64.93;61.03;;;;;;;17.52;57.34;100799.31;5092617;28;20141;-73
2024/02/23 10:33:45;;;;;;;67.35;63.45;;;;;;;17.36;58.46;100801.81;5091991;28;20048;-73
2024/02/23 10:36:16;;;;;;;61.53;57.92;;;;;;;16.55;73.66;100797.91;5090335;28;20070;-72
2024/02/23 10:38:47;;;;;;;63.40;59.70;;;;;;;17.21;68.27;100787.38;5094012;28;20048;-72
2024/02/23 10:41:14;;;;;;;65.50;61.80;;;;;;;15.30;93.13;100787.78;5094787;28;20112;-72
2024/02/23 10:43:45;;;;;;;62.90;59.30;;;;;;;16.73;94.98;100784.25;5090839;28;20062;-72
2024/02/23 10:46:16;;;;;;;61.17;57.67;;;;;;;16.92;74.37;100782.97;5091936;28;20865;-72
2024/02/23 10:48:45;;;;;;;64.93;61.22;;;;;;;14.40;100.00;100788.09;5101902;28;20055;-73
2024/02/23 10:51:15;;;;;;;65.38;61.58;;;;;;;15.64;100.00;100793.28;5096754;28;20071;-72
2024/02/23 10:53:42;;;;;;;64.43;60.53;;;;;;;20.10;54.42;100786.41;5095771;28;20060;-72
2024/02/23 10:56:09;;;;;;;61.13;57.42;;;;;;;16.45;70.23;100790.53;5095599;28;20048;-73
2024/02/23 10:58:37;;;;;;;64.82;61.05;;;;;;;18.04;65.73;100785.44;5096912;28;20079;-72
2024/02/23 11:01:08;;;;;;;66.43;62.60;;;;;;;16.16;81.30;100785.22;5093407;28;20575;-73
2024/02/23 11:03:39;;;;;;;72.57;68.47;;;;;;;18.67;57.89;100781.16;5092364;28;20078;-73
2024/02/23 11:06:07;;;;;;;64.20;60.33;;;;;;;15.96;85.75;100777.63;5090137;28;20732;-73
2024/02/23 11:08:36;;;;;;;63.40;59.63;;;;;;;14.23;100.00;100785.28;5089926;28;20058;-72